Time;durP1;ratioP1;P1;durP2;ratioP2;P2;SDS_P1;SDS_P2;PMS_P1;PMS_P2;Temp;Humidity;BMP_temperature;BMP_pressure;BME280_temperature;BME280_humidity;BME280_pressure;Samples;Min_cycle;Max_cycle;Signal;HPM_P1;HPM_P2
2021/10/27 00:01:00;;;;;;;1.75;0.10;;;21.20;50.90;;;;;;5065077;28;20039;-42
2021/10/27 00:03:27;;;;;;;1.63;0.52;;;21.20;50.90;;;;;;5050265;28;20033;-44
2021/10/27 00:05:56;;;;;;;0.88;0.10;;;21.20;50.90;;;;;;5053877;28;20045;-43
2021/10/27 00:08:23;;;;;;;0.10;0.10;;;21.20;50.90;;;;;;5053961;28;20536;-42
2021/10/27 00:10:50;;;;;;;0.95;0.10;;;21.20;50.90;;;;;;5054553;28;20063;-42
2021/10/27 00:13:17;;;;;;;0.75;0.20;;;21.20;51.50;;;;;;5052830;28;20037;-43
2021/10/27 00:15:44;;;;;;;0.57;0.10;;;21.20;50.90;;;;;;5050072;28;20516;-42
2021/10/27 00:18:12;;;;;;;0.30;0.30;;;21.20;50.90;;;;;;5055584;28;20033;-42
2021/10/27 00:20:39;;;;;;;0.60;0.47;;;21.20;50.90;;;;;;5054425;28;20451;-43
2021/10/27 00:23:07;;;;;;;2.45;1.00;;;21.20;50.90;;;;;;5054041;28;20061;-41
2021/10/27 00:25:34;;;;;;;0.52;0.20;;;21.20;50.90;;;;;;5054054;28;20076;-41
2021/10/27 00:28:02;;;;;;;0.52;0.52;;;21.20;50.90;;;;;;5054069;28;20094;-46
2021/10/27 00:30:29;;;;;;;0.50;0.10;;;21.20;50.90;;;;;;5062334;28;20416;-44
2021/10/27 00:32:57;;;;;;;0.85;0.10;;;21.20;50.90;;;;;;5053206;28;20059;-42
2021/10/27 00:35:24;;;;;;;0.35;0.10;;;21.20;50.90;;;;;;5053726;28;20048;-43
2021/10/27 00:37:51;;;;;;;0.30;0.10;;;21.20;50.90;;;;;;5053944;28;20504;-42
2021/10/27 00:40:20;;;;;;;0.40;0.10;;;21.20;50.90;;;;;;5053797;28;20053;-43
2021/10/27 00:42:47;;;;;;;0.20;0.10;;;21.20;50.90;;;;;;5052439;28;20048;-42
2021/10/27 00:45:14;;;;;;;0.10;0.10;;;21.10;50.90;;;;;;5066435;28;20052;-42
2021/10/27 00:47:41;;;;;;;1.55;0.10;;;21.10;50.90;;;;;;5053948;28;20040;-41
2021/10/27 00:50:08;;;;;;;0.20;0.10;;;21.20;50.90;;;;;;5053441;28;20053;-41
2021/10/27 00:52:35;;;;;;;0.10;0.10;;;21.10;50.90;;;;;;5053419;28;20128;-43
2021/10/27 00:55:04;;;;;;;0.93;0.10;;;21.20;50.90;;;;;;5051747;28;21135;-43
2021/10/27 00:57:34;;;;;;;0.17;0.10;;;21.20;50.90;;;;;;5052595;28;20509;-42
2021/10/27 01:00:04;;;;;;;1.40;0.10;;;21.20;50.90;;;;;;5061153;28;20049;-43
2021/10/27 01:02:31;;;;;;;0.60;0.30;;;21.20;50.90;;;;;;5054288;28;20047;-44
2021/10/27 01:04:58;;;;;;;0.10;0.10;;;21.10;50.80;;;;;;5053134;28;20037;-42
2021/10/27 01:07:26;;;;;;;2.63;0.10;;;21.10;50.90;;;;;;5063772;28;20056;-41
2021/10/27 01:09:54;;;;;;;0.95;0.20;;;21.10;50.80;;;;;;5067080;28;20044;-41
2021/10/27 01:12:21;;;;;;;0.65;0.10;;;21.10;50.80;;;;;;5049707;28;20049;-41
2021/10/27 01:14:49;;;;;;;0.10;0.10;;;21.10;50.80;;;;;;5053462;28;20048;-43
2021/10/27 01:17:18;;;;;;;1.65;0.10;;;21.10;50.80;;;;;;5057007;28;20044;-43
2021/10/27 01:19:48;;;;;;;0.35;0.10;;;21.20;50.90;;;;;;5052944;28;20048;-43
2021/10/27 01:22:16;;;;;;;0.63;0.20;;;21.10;50.80;;;;;;5053322;28;20381;-41
2021/10/27 01:24:44;;;;;;;0.73;0.10;;;21.10;50.80;;;;;;5052343;28;20056;-44
2021/10/27 01:27:11;;;;;;;0.82;0.10;;;21.10;50.80;;;;;;5050063;28;20047;-41
2021/10/27 01:29:38;;;;;;;1.40;0.10;;;21.10;50.80;;;;;;5058184;28;20040;-43
2021/10/27 01:32:07;;;;;;;1.65;0.10;;;21.10;50.80;;;;;;5060538;28;20029;-41
2021/10/27 01:34:34;;;;;;;0.00;0.00;;;21.10;50.80;;;;;;5053147;28;20083;-41
2021/10/27 01:37:02;;;;;;;0.85;0.10;;;21.10;50.80;;;;;;5052822;28;20044;-41
2021/10/27 01:39:29;;;;;;;0.73;0.10;;;21.10;50.80;;;;;;5050375;28;20159;-41
2021/10/27 01:41:56;;;;;;;0.20;0.10;;;21.10;50.80;;;;;;5058081;28;20037;-41
2021/10/27 01:44:24;;;;;;;0.40;0.10;;;21.10;50.80;;;;;;5055481;28;20063;-40
2021/10/27 01:46:51;;;;;;;1.38;0.20;;;21.10;50.80;;;;;;5052667;28;20047;-42
2021/10/27 01:49:18;;;;;;;0.32;0.10;;;21.10;50.80;;;;;;5052682;28;20048;-45
2021/10/27 01:51:45;;;;;;;0.65;0.20;;;21.10;50.80;;;;;;5047832;28;20079;-41
2021/10/27 01:54:14;;;;;;;0.20;0.10;;;21.10;50.80;;;;;;5065393;28;20041;-46
2021/10/27 01:56:41;;;;;;;2.42;0.10;;;21.10;50.80;;;;;;5051110;28;20124;-41
2021/10/27 01:59:08;;;;;;;0.75;0.10;;;21.10;50.80;;;;;;5053818;28;20041;-41
2021/10/27 02:01:35;;;;;;;0.10;0.10;;;21.10;50.80;;;;;;5060823;28;20140;-42
2021/10/27 02:04:02;;;;;;;0.57;0.10;;;21.10;50.80;;;;;;5052082;28;20046;-42
2021/10/27 02:06:29;;;;;;;0.43;0.38;;;21.10;50.80;;;;;;5050197;28;20052;-41
2021/10/27 02:08:57;;;;;;;0.10;0.10;;;21.10;50.80;;;;;;5051626;28;20045;-41
2021/10/27 02:11:25;;;;;;;2.03;0.20;;;21.00;50.70;;;;;;5051639;28;20531;-41
2021/10/27 02:13:53;;;;;;;0.10;0.10;;;21.10;50.80;;;;;;5058717;28;20037;-44
2021/10/27 02:16:20;;;;;;;0.35;0.35;;;21.10;50.80;;;;;;5051534;28;20045;-42
2021/10/27 02:18:47;;;;;;;0.40;0.25;;;21.10;50.80;;;;;;5051551;28;20041;-41
2021/10/27 02:21:14;;;;;;;0.65;0.20;;;21.10;50.80;;;;;;5049406;28;20048;-41
2021/10/27 02:23:41;;;;;;;0.20;0.10;;;21.10;50.70;;;;;;5052682;28;20059;-42
2021/10/27 02:26:09;;;;;;;0.45;0.45;;;21.10;50.80;;;;;;5051146;28;20041;-41
2021/10/27 02:28:37;;;;;;;0.10;0.10;;;21.10;50.80;;;;;;5051718;28;20080;-42
2021/10/27 02:31:05;;;;;;;5.15;0.45;;;21.10;50.80;;;;;;5062681;28;20040;-42
2021/10/27 02:33:32;;;;;;;0.40;0.15;;;21.10;50.80;;;;;;5049145;28;20212;-42
2021/10/27 02:36:00;;;;;;;0.70;0.00;;;21.10;50.80;;;;;;5050475;28;20048;-41
2021/10/27 02:38:27;;;;;;;0.35;0.20;;;21.10;50.80;;;;;;5051253;28;20084;-41
2021/10/27 02:40:56;;;;;;;0.40;0.10;;;21.10;50.80;;;;;;5051325;28;20551;-41
2021/10/27 02:43:23;;;;;;;1.13;0.10;;;21.00;50.70;;;;;;5051516;28;20120;-41
2021/10/27 02:45:51;;;;;;;1.27;0.10;;;21.10;50.80;;;;;;5051244;28;20036;-42
2021/10/27 02:48:19;;;;;;;0.57;0.10;;;21.00;50.70;;;;;;5054105;28;20119;-42
2021/10/27 02:50:47;;;;;;;0.52;0.10;;;21.00;50.80;;;;;;5051736;28;20041;-40
2021/10/27 02:53:14;;;;;;;0.25;0.25;;;21.00;50.70;;;;;;5051952;28;20116;-41
2021/10/27 02:55:41;;;;;;;0.47;0.43;;;21.00;50.70;;;;;;5051009;28;20118;-41
2021/10/27 02:58:08;;;;;;;0.47;0.10;;;21.00;50.70;;;;;;5051120;28;20060;-41
2021/10/27 03:00:35;;;;;;;0.55;0.10;;;21.00;50.70;;;;;;5060464;28;20048;-44
2021/10/27 03:03:03;;;;;;;0.43;0.10;;;21.00;50.70;;;;;;5049664;28;20493;-41
2021/10/27 03:05:31;;;;;;;0.10;0.10;;;21.00;50.70;;;;;;5051055;28;20041;-43
2021/10/27 03:07:58;;;;;;;0.88;0.10;;;21.00;50.70;;;;;;5050803;28;20049;-41
2021/10/27 03:10:26;;;;;;;0.88;0.10;;;21.00;50.70;;;;;;5061225;28;20037;-41
2021/10/27 03:12:53;;;;;;;0.10;0.10;;;21.00;50.80;;;;;;5050953;28;20055;-41
2021/10/27 03:15:20;;;;;;;0.30;0.30;;;21.00;50.70;;;;;;5047562;28;20045;-42
2021/10/27 03:17:47;;;;;;;0.20;0.10;;;21.00;51.30;;;;;;5050761;28;20044;-42
2021/10/27 03:20:15;;;;;;;0.95;0.10;;;21.00;50.80;;;;;;5051043;28;20041;-40
2021/10/27 03:22:42;;;;;;;0.75;0.10;;;21.00;50.80;;;;;;5050529;28;20044;-43
2021/10/27 03:25:09;;;;;;;0.30;0.10;;;21.00;50.80;;;;;;5051162;28;20052;-42
2021/10/27 03:27:36;;;;;;;0.20;0.10;;;21.00;50.80;;;;;;5049841;28;20052;-42
2021/10/27 03:30:04;;;;;;;0.10;0.10;;;21.00;50.80;;;;;;5058599;28;20127;-42
2021/10/27 03:32:32;;;;;;;0.10;0.10;;;21.00;50.80;;;;;;5051924;28;20059;-42
2021/10/27 03:34:59;;;;;;;0.20;0.13;;;21.00;50.80;;;;;;5050784;28;20032;-42
2021/10/27 03:37:27;;;;;;;0.95;0.10;;;21.00;50.80;;;;;;5049973;28;20045;-42
2021/10/27 03:39:54;;;;;;;0.22;0.10;;;21.00;50.80;;;;;;5050776;28;20471;-43
2021/10/27 03:42:21;;;;;;;0.10;0.10;;;21.00;50.80;;;;;;5047761;28;20043;-41
2021/10/27 03:44:48;;;;;;;0.43;0.10;;;21.00;50.80;;;;;;5047835;28;20131;-43
2021/10/27 03:47:17;;;;;;;0.15;0.10;;;21.00;50.80;;;;;;5046293;28;20053;-41
2021/10/27 03:49:44;;;;;;;0.57;0.10;;;21.00;50.80;;;;;;5050250;28;20035;-42
2021/10/27 03:52:11;;;;;;;1.35;0.10;;;20.90;50.80;;;;;;5050273;28;20052;-41
2021/10/27 03:54:39;;;;;;;0.22;0.10;;;21.00;50.80;;;;;;5049406;28;20520;-41
2021/10/27 03:57:06;;;;;;;0.30;0.17;;;21.00;50.80;;;;;;5048723;28;20129;-42
2021/10/27 03:59:33;;;;;;;0.10;0.10;;;21.00;50.80;;;;;;5055493;28;20040;-44
2021/10/27 04:02:00;;;;;;;0.38;0.10;;;20.90;50.80;;;;;;5055937;28;20041;-41
2021/10/27 04:04:27;;;;;;;0.10;0.10;;;21.00;50.80;;;;;;5052439;28;20143;-41
2021/10/27 04:06:55;;;;;;;1.33;0.10;;;20.90;50.80;;;;;;5050192;28;20036;-42
2021/10/27 04:09:22;;;;;;;0.38;0.10;;;20.90;50.80;;;;;;5047014;28;20048;-42
2021/10/27 04:11:50;;;;;;;0.10;0.10;;;20.90;50.80;;;;;;5049723;28;20086;-41
2021/10/27 04:14:17;;;;;;;0.20;0.10;;;20.90;50.80;;;;;;5050264;28;20044;-41
2021/10/27 04:16:44;;;;;;;0.20;0.10;;;20.90;50.80;;;;;;5050212;28;20061;-41
2021/10/27 04:19:11;;;;;;;1.20;0.20;;;20.90;50.80;;;;;;5049672;28;20048;-41
2021/10/27 04:21:38;;;;;;;0.10;0.10;;;20.90;50.80;;;;;;5048793;28;20067;-41
2021/10/27 04:24:06;;;;;;;0.22;0.03;;;20.90;50.80;;;;;;5047430;28;20529;-41
2021/10/27 04:26:33;;;;;;;0.63;0.10;;;20.90;50.80;;;;;;5049865;28;20059;-42
2021/10/27 04:29:01;;;;;;;1.10;0.85;;;20.90;50.80;;;;;;5050546;28;20416;-41
2021/10/27 04:31:28;;;;;;;1.17;0.10;;;20.90;50.80;;;;;;5060054;28;20060;-46
2021/10/27 04:33:55;;;;;;;0.30;0.10;;;20.90;50.80;;;;;;5050351;28;20039;-42
2021/10/27 04:36:22;;;;;;;0.35;0.10;;;20.90;50.80;;;;;;5047010;28;20049;-41
2021/10/27 04:38:49;;;;;;;2.00;0.10;;;20.90;50.80;;;;;;5047388;28;20053;-41
2021/10/27 04:41:16;;;;;;;0.10;0.00;;;20.90;50.80;;;;;;5051752;28;20102;-42
2021/10/27 04:43:43;;;;;;;0.65;0.10;;;20.90;50.80;;;;;;5057805;28;20033;-41
2021/10/27 04:46:12;;;;;;;0.10;0.10;;;20.90;50.80;;;;;;5053977;28;20060;-43
2021/10/27 04:48:39;;;;;;;0.63;0.10;;;20.90;50.80;;;;;;5052824;28;20444;-41
2021/10/27 04:51:06;;;;;;;0.20;0.20;;;20.90;50.80;;;;;;5051607;28;20041;-41
2021/10/27 04:53:33;;;;;;;0.17;0.10;;;20.90;50.80;;;;;;5053558;28;20060;-41
2021/10/27 04:56:01;;;;;;;1.10;0.10;;;20.90;50.80;;;;;;5060532;28;20037;-42
2021/10/27 04:58:29;;;;;;;0.63;0.10;;;20.90;50.80;;;;;;5053608;28;20425;-41
2021/10/27 05:00:56;;;;;;;0.32;0.20;;;20.90;50.80;;;;;;5064390;28;20124;-41
2021/10/27 05:03:25;;;;;;;0.93;0.50;;;20.90;50.80;;;;;;5050137;28;20055;-40
2021/10/27 05:05:54;;;;;;;0.40;0.15;;;20.80;50.70;;;;;;5065618;28;20044;-43
2021/10/27 05:08:23;;;;;;;1.75;0.20;;;20.90;50.80;;;;;;5056055;28;20040;-41
2021/10/27 05:10:50;;;;;;;1.92;0.20;;;20.90;50.80;;;;;;5053247;28;20440;-41
2021/10/27 05:13:19;;;;;;;0.10;0.10;;;20.90;50.80;;;;;;5053364;28;20768;-41
2021/10/27 05:15:46;;;;;;;0.10;0.10;;;20.90;50.80;;;;;;5049393;28;20044;-41
2021/10/27 05:18:14;;;;;;;1.85;0.57;;;20.80;50.70;;;;;;5066248;28;20531;-43
2021/10/27 05:20:43;;;;;;;0.40;0.10;;;20.90;50.80;;;;;;5052989;28;20037;-43
2021/10/27 05:23:10;;;;;;;1.20;0.40;;;20.90;50.90;;;;;;5053146;28;20045;-42
2021/10/27 05:25:37;;;;;;;1.73;0.10;;;20.80;50.70;;;;;;5013453;28;20044;-41
2021/10/27 05:28:04;;;;;;;0.38;0.25;;;20.90;50.80;;;;;;5011885;28;20050;-42
2021/10/27 05:30:32;;;;;;;0.25;0.25;;;20.80;50.70;;;;;;5023426;28;20121;-41
2021/10/27 05:32:59;;;;;;;0.10;0.10;;;20.80;50.70;;;;;;5014466;28;20121;-45
2021/10/27 05:35:27;;;;;;;0.20;0.20;;;20.80;50.70;;;;;;5013062;28;20038;-41
2021/10/27 05:37:57;;;;;;;0.40;0.10;;;20.80;50.80;;;;;;5013199;28;20057;-42
2021/10/27 05:40:25;;;;;;;0.25;0.20;;;20.80;50.70;;;;;;5013009;28;20514;-42
2021/10/27 05:42:52;;;;;;;0.95;0.10;;;20.80;50.70;;;;;;5013253;28;20042;-42
2021/10/27 05:45:24;;;;;;;0.40;0.10;;;20.80;50.70;;;;;;5010142;28;20043;-41
2021/10/27 05:47:54;;;;;;;0.15;0.10;;;20.80;50.70;;;;;;5014675;28;20533;-41
2021/10/27 05:50:25;;;;;;;0.20;0.10;;;20.80;50.70;;;;;;5012617;28;20088;-41
2021/10/27 05:55:38;;;;;;;0.30;0.20;;;20.80;50.80;;;;;;5012437;28;20042;-41
2021/10/27 05:58:08;;;;;;;1.05;0.20;;;20.80;50.80;;;;;;5012430;28;20041;-42
2021/10/27 06:00:36;;;;;;;0.30;0.30;;;20.80;50.80;;;;;;5019824;28;20046;-41
2021/10/27 06:03:03;;;;;;;0.20;0.13;;;20.80;50.80;;;;;;5026097;28;20038;-46
2021/10/27 06:05:31;;;;;;;1.50;0.60;;;20.80;50.80;;;;;;5013950;28;20384;-41
2021/10/27 06:07:58;;;;;;;3.05;0.60;;;20.70;50.70;;;;;;5013341;28;20046;-41
2021/10/27 06:10:25;;;;;;;0.90;0.20;;;20.80;50.80;;;;;;5012443;28;20080;-43
2021/10/27 06:12:58;;;;;;;0.40;0.20;;;20.80;50.80;;;;;;5012322;28;20105;-41
2021/10/27 06:15:25;;;;;;;2.83;0.30;;;20.80;50.80;;;;;;5009065;28;20121;-41
2021/10/27 06:17:53;;;;;;;2.05;0.20;;;20.70;50.70;;;;;;5011611;28;20048;-41
2021/10/27 06:20:20;;;;;;;0.75;0.17;;;20.80;50.80;;;;;;5011957;28;20076;-44
2021/10/27 06:22:47;;;;;;;2.13;0.28;;;20.70;50.70;;;;;;5012126;28;20033;-41
2021/10/27 06:25:15;;;;;;;0.17;0.10;;;20.70;50.70;;;;;;5045753;28;20416;-41
2021/10/27 06:27:45;;;;;;;0.38;0.20;;;20.70;50.80;;;;;;5051152;28;20589;-41
2021/10/27 06:30:17;;;;;;;0.52;0.20;;;20.70;50.70;;;;;;5059316;28;20083;-41
2021/10/27 06:32:53;;;;;;;0.50;0.13;;;20.70;50.70;;;;;;5051169;28;20041;-47
2021/10/27 06:35:24;;;;;;;2.20;0.20;;;20.70;50.70;;;;;;5051202;28;20040;-43
2021/10/27 06:38:10;;;;;;;0.85;0.40;;;20.70;50.80;;;;;;5054554;28;20040;-41
2021/10/27 06:46:30;;;;;;;1.45;0.38;;;20.70;50.80;;;;;;5051016;28;20032;-43
2021/10/27 06:48:57;;;;;;;1.58;0.10;;;20.70;50.80;;;;;;5050970;28;20407;-40
2021/10/27 06:51:24;;;;;;;0.80;0.28;;;20.70;50.80;;;;;;5048215;28;20048;-41
2021/10/27 06:53:51;;;;;;;1.38;0.30;;;20.60;50.70;;;;;;5051062;28;20540;-40
2021/10/27 06:56:21;;;;;;;1.45;0.38;;;20.70;50.80;;;;;;5051432;28;20036;-40
2021/10/27 06:58:51;;;;;;;0.70;0.20;;;20.70;50.80;;;;;;5050736;28;20606;-41
2021/10/27 07:01:23;;;;;;;2.13;0.45;;;20.60;50.70;;;;;;5061554;28;20044;-41
2021/10/27 07:17:51;;;;;;;0.60;0.40;;;20.60;50.90;;;;;;4994760;28;20049;-40
2021/10/27 07:20:19;;;;;;;0.75;0.43;;;20.60;50.90;;;;;;5023918;28;20049;-41
2021/10/27 07:22:46;;;;;;;1.10;0.98;;;20.60;50.90;;;;;;5024086;28;20041;-40
2021/10/27 07:25:15;;;;;;;1.77;0.30;;;20.60;50.80;;;;;;5024216;28;20061;-40
2021/10/27 07:27:45;;;;;;;0.40;0.20;;;20.60;50.80;;;;;;5024115;28;20478;-45
2021/10/27 07:30:13;;;;;;;2.33;0.20;;;20.60;50.80;;;;;;5008664;28;20942;-42
2021/10/27 07:32:41;;;;;;;0.90;0.25;;;20.60;50.80;;;;;;5023729;28;20045;-42
2021/10/27 07:35:18;;;;;;;0.40;0.20;;;20.60;50.70;;;;;;5023579;28;20135;-42
2021/10/27 07:40:35;;;;;;;0.90;0.43;;;20.60;50.70;;;;;;5023950;28;20093;-42
2021/10/27 07:43:07;;;;;;;1.02;0.70;;;20.60;50.70;;;;;;5024161;28;20564;-40
2021/10/27 07:45:36;;;;;;;0.65;0.47;;;20.60;50.70;;;;;;5023828;28;20046;-40
2021/10/27 07:48:04;;;;;;;1.65;0.22;;;20.60;50.70;;;;;;5025116;28;20053;-41
2021/10/27 07:50:34;;;;;;;0.47;0.40;;;20.60;50.60;;;;;;5023617;28;20077;-40
2021/10/27 07:53:03;;;;;;;2.72;0.50;;;20.60;50.60;;;;;;5030027;28;20055;-41
2021/10/27 07:55:31;;;;;;;1.05;0.30;;;20.60;50.60;;;;;;5050461;28;20037;-40
2021/10/27 07:57:59;;;;;;;0.20;0.20;;;20.60;50.60;;;;;;5050204;28;20087;-42
2021/10/27 08:00:26;;;;;;;2.88;0.30;;;20.60;50.60;;;;;;5058752;28;20036;-41
2021/10/27 08:02:54;;;;;;;0.75;0.30;;;20.60;50.50;;;;;;5050030;28;20051;-40
2021/10/27 08:05:22;;;;;;;0.85;0.35;;;20.60;50.50;;;;;;5050441;28;20130;-41
2021/10/27 08:07:52;;;;;;;2.70;0.90;;;20.60;50.50;;;;;;5050277;28;20516;-45
2021/10/27 08:10:19;;;;;;;0.88;0.25;;;20.70;50.50;;;;;;5048396;28;20059;-43
2021/10/27 08:12:49;;;;;;;0.20;0.20;;;20.70;50.50;;;;;;5049835;28;20036;-42
2021/10/27 08:15:17;;;;;;;3.08;1.30;;;20.70;50.50;;;;;;5063518;28;20055;-41
2021/10/27 08:17:45;;;;;;;3.33;0.85;;;20.70;50.50;;;;;;5046943;28;20124;-40
2021/10/27 08:20:14;;;;;;;1.65;0.40;;;20.70;50.40;;;;;;5049887;28;20053;-40
2021/10/27 08:22:43;;;;;;;1.75;0.68;;;20.70;50.40;;;;;;5054044;28;20036;-40
2021/10/27 08:25:19;;;;;;;1.48;0.55;;;20.70;50.40;;;;;;5052929;28;20048;-39
2021/10/27 08:27:46;;;;;;;1.20;0.75;;;20.70;50.40;;;;;;5053846;28;20158;-40
2021/10/27 08:30:14;;;;;;;0.60;0.47;;;20.70;50.30;;;;;;5066746;28;20465;-41
2021/10/27 08:32:45;;;;;;;1.20;0.45;;;20.70;50.30;;;;;;5053894;28;20476;-41
2021/10/27 08:35:13;;;;;;;0.75;0.60;;;20.70;50.30;;;;;;5056460;28;20068;-42
2021/10/27 08:37:43;;;;;;;3.42;0.40;;;20.70;50.30;;;;;;5062422;28;20041;-43
2021/10/27 08:40:12;;;;;;;1.40;0.52;;;20.70;50.20;;;;;;5053741;28;20584;-41
2021/10/27 08:42:42;;;;;;;1.25;0.68;;;20.70;50.20;;;;;;5052119;28;20040;-40
2021/10/27 08:45:10;;;;;;;1.17;0.55;;;20.70;50.20;;;;;;5051323;28;20041;-43
2021/10/27 08:47:38;;;;;;;0.52;0.52;;;20.70;50.20;;;;;;5052865;28;20045;-40
2021/10/27 08:50:06;;;;;;;0.55;0.50;;;20.80;50.20;;;;;;5053525;28;20047;-40
2021/10/27 08:52:34;;;;;;;1.83;0.40;;;20.80;50.20;;;;;;5056248;28;20047;-40
2021/10/27 08:55:02;;;;;;;2.25;0.93;;;20.80;50.20;;;;;;5053446;28;20040;-41
2021/10/27 08:57:31;;;;;;;1.67;0.52;;;20.80;50.20;;;;;;5050619;28;20126;-43
2021/10/27 09:00:04;;;;;;;2.78;0.55;;;20.80;50.10;;;;;;5063327;28;20516;-44
2021/10/27 09:02:49;;;;;;;1.50;0.95;;;20.80;50.10;;;;;;5054797;28;20421;-46
2021/10/27 09:05:34;;;;;;;2.85;0.60;;;20.80;50.00;;;;;;5059801;28;20037;-42
2021/10/27 09:08:21;;;;;;;2.38;0.38;;;20.80;50.00;;;;;;5052971;28;20044;-41
2021/10/27 09:16:47;;;;;;;1.53;0.60;;;20.80;50.00;;;;;;5053114;28;20049;-42
2021/10/27 09:36:30;;;;;;;2.10;1.03;;;20.90;49.80;;;;;;4991260;28;20472;-41
2021/10/27 09:39:34;;;;;;;1.00;1.00;;;20.90;49.80;;;;;;4988959;28;20597;-42
2021/10/27 10:04:42;;;;;;;1.75;0.35;;;21.00;49.50;;;;;;4853429;29;20056;-50
2021/10/27 10:07:11;;;;;;;1.33;0.57;;;21.00;49.50;;;;;;4853796;29;20129;-46
2021/10/27 10:09:41;;;;;;;2.17;0.93;;;21.10;49.50;;;;;;4860465;29;20058;-43
2021/10/27 10:12:08;;;;;;;0.65;0.63;;;21.10;49.50;;;;;;4911138;29;20620;-40
2021/10/27 10:14:36;;;;;;;2.60;0.50;;;21.10;49.40;;;;;;4909566;29;20055;-41
2021/10/27 10:17:05;;;;;;;2.88;0.93;;;21.10;49.40;;;;;;4909598;29;20375;-46
2021/10/27 10:19:35;;;;;;;1.70;0.68;;;21.20;49.30;;;;;;4909131;29;20407;-45
2021/10/27 10:22:04;;;;;;;1.15;0.50;;;21.20;49.30;;;;;;4954537;28;20129;-42
2021/10/27 10:24:39;;;;;;;3.22;0.80;;;21.20;49.30;;;;;;5008152;28;20469;-42
2021/10/27 10:27:13;;;;;;;2.40;0.50;;;21.20;49.20;;;;;;5050501;28;20044;-44
2021/10/27 10:29:52;;;;;;;1.70;0.90;;;21.20;49.20;;;;;;5057933;28;20051;-43
2021/10/27 10:32:34;;;;;;;1.40;0.90;;;21.20;49.20;;;;;;5054889;28;20049;-44
2021/10/27 10:35:10;;;;;;;1.73;0.55;;;21.30;49.20;;;;;;5050532;28;20072;-41
2021/10/27 10:37:42;;;;;;;;;;;21.20;49.10;;;;;;5050745;28;20144;-42
2021/10/27 10:40:59;;;;;;;0.75;0.75;;;21.20;49.20;;;;;;5061927;28;20557;-42
2021/10/27 11:39:46;;;;;;;3.75;0.77;;;21.90;48.20;;;;;;4986822;28;20042;-41
2021/10/27 11:42:35;;;;;;;4.22;1.30;;;22.00;48.20;;;;;;5002185;28;20045;-44
2021/10/27 11:45:14;;;;;;;1.98;0.82;;;22.00;48.10;;;;;;5052427;28;20040;-42
2021/10/27 11:47:43;;;;;;;4.65;0.93;;;22.10;48.10;;;;;;5049021;28;20642;-44
2021/10/27 11:50:13;;;;;;;2.28;1.08;;;22.10;48.00;;;;;;5049613;28;20095;-43
2021/10/27 11:52:41;;;;;;;4.65;0.75;;;22.10;47.90;;;;;;5050156;28;20471;-42
2021/10/27 11:55:10;;;;;;;2.65;0.82;;;22.20;47.90;;;;;;5054247;28;20045;-41
2021/10/27 11:57:39;;;;;;;1.23;1.13;;;22.20;47.80;;;;;;5052858;28;20176;-45
2021/10/27 12:00:09;;;;;;;2.08;1.08;;;22.20;47.70;;;;;;5062270;28;20154;-46
2021/10/27 12:02:49;;;;;;;3.08;2.00;;;22.30;47.70;;;;;;5054676;28;20076;-42
2021/10/27 12:05:28;;;;;;;1.85;1.05;;;22.40;47.70;;;;;;5053694;28;20044;-42
2021/10/27 12:13:51;;;;;;;3.15;0.57;;;22.40;47.60;;;;;;4992666;28;20100;-42
2021/10/27 12:19:18;;;;;;;1.13;0.95;;;22.50;47.50;;;;;;4991436;28;20446;-41
2021/10/27 12:21:51;;;;;;;3.58;0.95;;;22.50;47.40;;;;;;4992513;28;20564;-41
2021/10/27 12:24:20;;;;;;;3.17;0.55;;;22.50;47.30;;;;;;5005078;28;20120;-41
2021/10/27 12:26:55;;;;;;;3.03;0.65;;;22.60;47.40;;;;;;5000982;28;20045;-43
2021/10/27 12:29:26;;;;;;;2.20;0.95;;;22.60;47.30;;;;;;4997964;28;20150;-41
2021/10/27 12:32:09;;;;;;;1.48;0.77;;;22.70;47.30;;;;;;4998658;28;20046;-43
2021/10/27 12:34:45;;;;;;;1.83;0.85;;;22.70;47.20;;;;;;4992070;28;20053;-44
2021/10/27 12:37:26;;;;;;;2.67;0.98;;;22.70;47.80;;;;;;4992253;28;20068;-41
2021/10/27 12:39:54;;;;;;;4.35;1.17;;;22.70;47.20;;;;;;4991388;28;20118;-42
2021/10/27 12:42:21;;;;;;;1.95;0.40;;;22.70;47.20;;;;;;4992395;28;20058;-41
2021/10/27 12:44:52;;;;;;;2.85;0.95;;;22.80;47.10;;;;;;4992506;28;20621;-42
2021/10/27 12:47:23;;;;;;;1.63;0.55;;;22.80;47.70;;;;;;5004608;28;20180;-43
2021/10/27 12:50:03;;;;;;;2.25;0.50;;;22.80;47.00;;;;;;5053525;28;20045;-40
2021/10/27 12:52:33;;;;;;;2.05;0.70;;;22.80;47.00;;;;;;5054567;28;20036;-42
2021/10/27 12:55:28;;;;;;;1.88;0.82;;;22.90;47.00;;;;;;5053887;28;20037;-42
2021/10/27 12:58:02;;;;;;;2.67;0.90;;;22.90;46.90;;;;;;5048688;28;20926;-42
2021/10/27 13:00:46;;;;;;;0.60;0.60;;;23.00;47.00;;;;;;5062373;28;20045;-41
2021/10/27 13:03:26;;;;;;;1.92;0.77;;;22.90;46.90;;;;;;5050913;28;20083;-42
2021/10/27 13:06:00;;;;;;;1.15;0.88;;;23.00;46.90;;;;;;5051527;28;20049;-41
2021/10/27 13:11:30;;;;;;;0.93;0.40;;;23.10;46.90;;;;;;4991374;28;20046;-42
2021/10/27 13:14:04;;;;;;;0.65;0.30;;;23.10;46.90;;;;;;4991475;28;20542;-42
2021/10/27 13:19:37;;;;;;;2.15;0.60;;;23.10;46.80;;;;;;4966896;28;20038;-47
2021/10/27 13:22:28;;;;;;;1.73;0.40;;;23.10;46.70;;;;;;4991397;28;20134;-42
2021/10/27 13:30:22;;;;;;;1.20;0.35;;;23.20;46.70;;;;;;4929627;29;20416;-43
2021/10/27 13:32:53;;;;;;;1.35;0.80;;;23.20;46.60;;;;;;4948868;29;20054;-42
2021/10/27 13:35:21;;;;;;;0.82;0.20;;;23.20;46.60;;;;;;4948435;28;20047;-43
2021/10/27 13:37:48;;;;;;;1.15;0.82;;;23.30;46.60;;;;;;4948765;29;20043;-41
2021/10/27 13:40:16;;;;;;;1.60;0.30;;;23.30;46.60;;;;;;4948342;29;20143;-44
2021/10/27 13:42:46;;;;;;;2.70;1.00;;;23.30;46.50;;;;;;4948529;29;20078;-41
2021/10/27 13:45:18;;;;;;;1.15;0.30;;;23.40;46.50;;;;;;4950044;29;20051;-42
2021/10/27 13:47:57;;;;;;;0.98;0.80;;;23.40;46.50;;;;;;4982750;28;20426;-42
2021/10/27 14:07:11;;;;;;;2.95;0.63;;;23.50;46.40;;;;;;4986623;28;20058;-41
2021/10/27 14:09:42;;;;;;;1.80;0.30;;;23.50;46.30;;;;;;4986755;28;20637;-42
2021/10/27 14:12:20;;;;;;;2.05;0.38;;;23.50;46.20;;;;;;4987674;28;20050;-45
2021/10/27 14:14:58;;;;;;;0.57;0.22;;;23.60;46.20;;;;;;4987288;28;20132;-41
2021/10/27 14:21:57;;;;;;;1.50;0.32;;;23.60;46.10;;;;;;4983561;28;20566;-44
2021/10/27 15:21:18;;;;;;;2.20;0.82;;;23.80;45.40;;;;;;4987640;28;20058;-41
2021/10/27 15:23:58;;;;;;;0.75;0.30;;;23.80;45.40;;;;;;4997000;28;20076;-41
2021/10/27 15:29:24;;;;;;;0.43;0.38;;;23.90;45.40;;;;;;4990321;28;20071;-40
2021/10/27 15:35:02;;;;;;;0.95;0.43;;;23.80;45.30;;;;;;5045240;28;20053;-41
2021/10/27 15:40:40;;;;;;;1.48;0.30;;;23.80;45.20;;;;;;5051226;28;20041;-43
2021/10/27 15:43:20;;;;;;;2.90;0.35;;;23.90;45.30;;;;;;5049236;28;20053;-41
2021/10/27 15:51:20;;;;;;;0.60;0.10;;;23.80;45.10;;;;;;5064573;28;20460;-41
2021/10/27 15:53:47;;;;;;;0.40;0.20;;;23.80;45.10;;;;;;5052370;28;20044;-41
2021/10/27 15:56:14;;;;;;;1.80;0.30;;;23.70;45.10;;;;;;5050873;28;20594;-42
2021/10/27 15:58:41;;;;;;;2.05;0.20;;;23.70;45.10;;;;;;5050395;28;20040;-43
2021/10/27 16:01:10;;;;;;;1.17;0.30;;;23.70;45.10;;;;;;5062279;28;20131;-41
2021/10/27 16:03:37;;;;;;;1.42;0.30;;;23.70;45.10;;;;;;5048952;28;20041;-42
2021/10/27 16:06:06;;;;;;;1.60;0.30;;;23.70;45.10;;;;;;5049582;28;20044;-42
2021/10/27 16:08:36;;;;;;;0.63;0.40;;;23.70;45.10;;;;;;5050548;28;20588;-41
2021/10/27 16:11:03;;;;;;;2.28;0.10;;;23.70;45.10;;;;;;5050417;28;20041;-42
2021/10/27 16:13:30;;;;;;;1.13;0.20;;;23.70;45.20;;;;;;5050556;28;20059;-42
2021/10/27 16:15:58;;;;;;;1.67;0.22;;;23.60;45.10;;;;;;5050682;28;20123;-42
2021/10/27 16:18:27;;;;;;;1.67;0.30;;;23.60;45.20;;;;;;5047740;28;20115;-42
2021/10/27 16:20:56;;;;;;;0.40;0.30;;;23.60;45.20;;;;;;5050492;28;20048;-41
2021/10/27 16:23:23;;;;;;;0.10;0.10;;;23.60;45.20;;;;;;5050955;28;20041;-41
2021/10/27 16:25:52;;;;;;;0.25;0.10;;;23.50;45.20;;;;;;5050170;28;20453;-41
2021/10/27 16:28:20;;;;;;;0.50;0.10;;;23.50;45.20;;;;;;5050685;28;20501;-41
2021/10/27 16:30:47;;;;;;;0.47;0.15;;;23.50;45.20;;;;;;5060928;28;20041;-41
2021/10/27 16:33:17;;;;;;;0.60;0.20;;;23.50;45.80;;;;;;5048182;28;20045;-42
2021/10/27 16:35:46;;;;;;;2.65;0.10;;;23.50;45.30;;;;;;5053263;28;20460;-42
2021/10/27 16:38:13;;;;;;;0.30;0.13;;;23.40;45.20;;;;;;5050357;28;20071;-45
2021/10/27 16:40:40;;;;;;;0.98;0.20;;;23.40;45.20;;;;;;5053575;28;20052;-43
2021/10/27 16:43:07;;;;;;;1.10;0.70;;;23.40;45.20;;;;;;5054079;28;20036;-42
2021/10/27 16:45:35;;;;;;;0.57;0.20;;;23.30;45.20;;;;;;5051683;28;20397;-42
2021/10/27 16:48:02;;;;;;;0.43;0.30;;;23.30;45.30;;;;;;5053282;28;20514;-43
2021/10/27 16:50:31;;;;;;;3.40;0.20;;;23.30;45.40;;;;;;5053655;28;20047;-44
2021/10/27 16:53:00;;;;;;;0.40;0.15;;;23.30;45.40;;;;;;5053763;28;20041;-42
2021/10/27 16:55:29;;;;;;;0.10;0.10;;;23.20;45.40;;;;;;5053141;28;20045;-41
2021/10/27 16:57:58;;;;;;;0.28;0.20;;;23.20;45.40;;;;;;5065916;28;20041;-47
2021/10/27 17:00:28;;;;;;;0.73;0.38;;;23.20;45.50;;;;;;5065369;28;20088;-41